Time;durP1;ratioP1;P1;durP2;ratioP2;P2;SDS_P1;SDS_P2;PMS_P1;PMS_P2;Temp;Humidity;BMP_temperature;BMP_pressure;BME280_temperature;BME280_humidity;BME280_pressure;Samples;Min_cycle;Max_cycle;Signal;HPM_P1;HPM_P2
2021/03/31 00:00:29;;;;;;;25.43;14.63;;;;;;;6.14;51.72;100701.01;1737492;81;21213;-62
2021/03/31 00:02:58;;;;;;;25.17;13.55;;;;;;;6.12;51.81;100699.06;1746778;81;21149;-63
2021/03/31 00:05:27;;;;;;;21.40;12.82;;;;;;;6.11;51.98;100697.39;1730093;83;21198;-62
2021/03/31 00:07:55;;;;;;;23.60;13.22;;;;;;;6.10;51.45;100696.25;1734067;81;21201;-63
2021/03/31 00:10:43;;;;;;;19.60;12.85;;;;;;;6.12;51.67;100703.12;1756118;81;21218;-62
2021/03/31 00:13:11;;;;;;;21.90;12.80;;;;;;;6.13;51.72;100698.54;1751123;81;21141;-62
2021/03/31 00:15:39;;;;;;;22.20;13.13;;;;;;;6.11;51.85;100693.34;1760075;81;21153;-62
2021/03/31 00:18:12;;;;;;;21.25;13.25;;;;;;;6.13;51.53;100691.78;1750383;81;21556;-62
2021/03/31 00:20:40;;;;;;;23.12;13.85;;;;;;;6.13;51.45;100690.44;1732195;81;21181;-62
2021/03/31 00:23:08;;;;;;;23.65;13.28;;;;;;;6.13;51.76;100689.08;1750749;81;21195;-62
2021/03/31 00:25:36;;;;;;;22.48;13.48;;;;;;;6.12;52.33;100687.41;1732521;81;21246;-62
2021/03/31 00:28:06;;;;;;;21.73;13.10;;;;;;;6.09;52.71;100679.23;1736705;81;21600;-62
2021/03/31 00:30:33;;;;;;;22.00;13.22;;;;;;;6.07;53.63;100675.90;1743625;81;21328;-62
2021/03/31 00:33:02;;;;;;;22.50;14.50;;;;;;;6.03;53.72;100684.14;1735792;81;21198;-63
2021/03/31 00:35:31;;;;;;;20.60;13.60;;;;;;;5.99;53.98;100680.22;1731899;81;21223;-62
2021/03/31 00:37:59;;;;;;;23.80;13.18;;;;;;;5.97;54.00;100678.27;1751724;81;21163;-62
2021/03/31 00:40:30;;;;;;;20.30;13.00;;;;;;;5.95;53.91;100673.62;1741614;81;21295;-62
2021/03/31 00:42:58;;;;;;;21.87;13.58;;;;;;;5.91;53.90;100677.80;1706064;83;21178;-62
2021/03/31 00:45:27;;;;;;;21.10;13.30;;;;;;;5.88;53.67;100669.58;1718342;83;21129;-62
2021/03/31 00:47:55;;;;;;;21.65;12.58;;;;;;;5.89;53.99;100672.59;1727588;83;21190;-62
2021/03/31 00:50:23;;;;;;;23.42;13.88;;;;;;;5.87;53.30;100667.95;1731116;83;21632;-63
2021/03/31 00:52:52;;;;;;;22.35;12.85;;;;;;;5.87;53.64;100664.41;1707293;83;21649;-62
2021/03/31 00:55:23;;;;;;;21.62;13.58;;;;;;;5.88;53.71;100664.73;1719751;83;21175;-62
2021/03/31 00:57:51;;;;;;;22.27;13.13;;;;;;;5.88;53.99;100662.03;1714480;83;21136;-62
2021/03/31 01:00:19;;;;;;;20.08;13.05;;;;;;;5.87;53.90;100666.59;1706403;82;21167;-62
2021/03/31 01:02:47;;;;;;;24.00;13.43;;;;;;;5.87;53.70;100658.49;1713552;82;21203;-62
2021/03/31 01:05:25;;;;;;;19.57;12.80;;;;;;;5.87;53.88;100654.95;1702446;83;21370;-62
2021/03/31 01:07:54;;;;;;;20.48;13.00;;;;;;;5.86;53.91;100656.83;1708950;83;21163;-63
2021/03/31 01:10:29;;;;;;;23.25;13.30;;;;;;;5.84;54.10;100645.39;1717135;83;21157;-62
2021/03/31 01:13:39;;;;;;;25.10;14.15;;;;;;;5.82;53.73;100646.11;1730774;82;21121;-62
2021/03/31 01:16:27;;;;;;;19.70;12.95;;;;;;;5.82;54.49;100646.11;1731852;83;21209;-62
2021/03/31 01:19:12;;;;;;;19.90;13.20;;;;;;;5.80;54.47;100638.77;1719905;80;21184;-62
2021/03/31 01:22:19;;;;;;;21.70;13.98;;;;;;;5.78;54.24;100642.70;1725027;80;21426;-62
2021/03/31 01:25:14;;;;;;;20.20;12.68;;;;;;;5.77;54.73;100637.02;1730875;83;21201;-62
2021/03/31 01:28:07;;;;;;;22.35;13.25;;;;;;;5.74;54.88;100628.01;1719172;83;21222;-62
2021/03/31 01:30:59;;;;;;;22.37;12.88;;;;;;;5.73;55.51;100631.75;1712646;83;21296;-62
2021/03/31 01:33:59;;;;;;;19.15;12.40;;;;;;;5.70;55.76;100628.14;1702587;83;21207;-62
2021/03/31 01:36:27;;;;;;;21.73;13.13;;;;;;;5.68;56.32;100623.45;1721793;83;21562;-63
2021/03/31 01:39:03;;;;;;;23.77;13.58;;;;;;;5.63;56.72;100620.59;1686500;83;21194;-63
2021/03/31 01:41:31;;;;;;;19.35;12.25;;;;;;;5.61;57.23;100622.16;1742947;82;21557;-63
2021/03/31 01:43:59;;;;;;;25.32;13.72;;;;;;;5.61;56.84;100618.62;1727050;82;21141;-63
2021/03/31 01:46:29;;;;;;;21.97;14.63;;;;;;;5.58;57.04;100615.84;1714377;82;21608;-63
2021/03/31 01:49:01;;;;;;;20.10;12.88;;;;;;;5.58;57.44;100612.31;1739123;82;21207;-64
2021/03/31 01:51:29;;;;;;;22.85;13.75;;;;;;;5.56;57.30;100616.59;1713625;82;21829;-63
2021/03/31 01:53:58;;;;;;;21.48;12.68;;;;;;;5.53;57.33;100615.14;1747067;82;21177;-63
2021/03/31 01:56:26;;;;;;;23.10;13.72;;;;;;;5.55;57.49;100611.40;1745135;82;21625;-63
2021/03/31 01:58:55;;;;;;;24.70;13.72;;;;;;;5.55;57.99;100605.48;1747088;81;21649;-63
2021/03/31 02:01:23;;;;;;;21.62;13.25;;;;;;;5.60;57.93;100604.84;1735153;82;21640;-63
2021/03/31 02:03:53;;;;;;;20.05;12.65;;;;;;;5.76;57.16;100605.64;1733794;82;21202;-63
2021/03/31 02:06:21;;;;;;;19.12;12.78;;;;;;;5.78;57.10;100600.83;1725513;82;21163;-63
2021/03/31 02:08:49;;;;;;;20.90;13.18;;;;;;;5.75;56.85;100605.33;1730899;82;21183;-62
2021/03/31 02:11:19;;;;;;;20.50;13.30;;;;;;;5.75;56.67;100599.92;1720161;82;21283;-62
2021/03/31 02:13:48;;;;;;;21.20;12.88;;;;;;;5.74;56.56;100604.49;1732968;82;21148;-62
2021/03/31 02:16:16;;;;;;;23.83;13.08;;;;;;;5.74;56.41;100602.34;1743486;82;21157;-62
2021/03/31 02:18:44;;;;;;;20.40;12.58;;;;;;;5.73;56.14;100602.03;1734034;82;21224;-62
2021/03/31 02:21:13;;;;;;;18.92;12.90;;;;;;;5.73;56.59;100599.33;1717475;82;21157;-62
2021/03/31 02:23:41;;;;;;;20.32;13.05;;;;;;;5.72;56.55;100593.61;1747177;82;21196;-63
2021/03/31 02:26:10;;;;;;;21.73;13.62;;;;;;;5.72;56.67;100588.21;1713597;82;21147;-62
2021/03/31 02:28:37;;;;;;;23.62;13.98;;;;;;;5.70;56.54;100588.97;1730907;82;21729;-63
2021/03/31 02:31:06;;;;;;;23.15;14.78;;;;;;;5.67;56.74;100591.56;1744161;82;21170;-62
2021/03/31 02:33:34;;;;;;;20.05;13.28;;;;;;;5.68;57.06;100591.04;1741376;82;21145;-62
2021/03/31 02:36:04;;;;;;;23.77;14.68;;;;;;;5.68;57.09;100593.22;1723278;82;21160;-62
2021/03/31 02:38:32;;;;;;;22.17;14.23;;;;;;;5.69;57.32;100591.36;1729313;82;21183;-62
2021/03/31 02:41:01;;;;;;;23.30;13.85;;;;;;;5.69;57.43;100594.05;1729191;82;21164;-63
2021/03/31 02:43:29;;;;;;;22.17;14.98;;;;;;;5.70;57.62;100590.31;1706880;83;21191;-63
2021/03/31 02:45:56;;;;;;;22.93;14.63;;;;;;;5.69;57.61;100588.13;1698625;83;21585;-63
2021/03/31 02:48:24;;;;;;;24.55;13.90;;;;;;;5.67;57.93;100581.30;1686062;84;21189;-63
2021/03/31 02:50:56;;;;;;;22.50;14.45;;;;;;;5.68;58.66;100581.06;1687095;85;21359;-63
2021/03/31 02:53:24;;;;;;;21.25;13.65;;;;;;;5.77;59.11;100578.42;1701242;83;21193;-63
2021/03/31 02:55:55;;;;;;;22.60;14.80;;;;;;;5.84;59.17;100579.70;1694746;83;21163;-63
2021/03/31 02:58:22;;;;;;;20.88;13.95;;;;;;;5.78;59.40;100580.05;1711563;83;21191;-63
2021/03/31 03:00:50;;;;;;;19.20;13.88;;;;;;;5.75;59.60;100585.06;1680093;83;21685;-63
2021/03/31 03:03:17;;;;;;;20.32;13.98;;;;;;;5.71;59.50;100583.33;1703543;83;21333;-63
2021/03/31 03:05:45;;;;;;;24.27;15.08;;;;;;;5.69;59.42;100587.30;1721626;83;21606;-63
2021/03/31 03:08:13;;;;;;;26.27;15.68;;;;;;;5.67;60.05;100586.70;1703073;83;21323;-63
2021/03/31 03:10:41;;;;;;;23.12;14.28;;;;;;;5.65;60.77;100586.91;1706081;83;21148;-63
2021/03/31 03:13:10;;;;;;;24.75;14.98;;;;;;;5.61;60.81;100574.89;1709620;83;21631;-63
2021/03/31 03:15:39;;;;;;;22.93;14.33;;;;;;;5.57;61.22;100571.48;1708829;83;21164;-63
2021/03/31 03:18:07;;;;;;;25.85;14.78;;;;;;;5.66;61.30;100579.64;1686709;83;21597;-63
2021/03/31 03:20:35;;;;;;;23.55;14.05;;;;;;;5.73;61.13;100578.55;1721433;83;21166;-63
2021/03/31 03:23:03;;;;;;;23.95;15.43;;;;;;;5.69;61.63;100575.14;1707059;83;21160;-64
2021/03/31 03:25:30;;;;;;;24.63;15.25;;;;;;;5.62;61.76;100573.84;1721330;83;21602;-62
2021/03/31 03:27:58;;;;;;;25.55;15.25;;;;;;;5.57;61.98;100571.48;1721058;82;21227;-63
2021/03/31 03:30:26;;;;;;;21.37;14.75;;;;;;;5.53;62.20;100568.39;1711101;83;21136;-64
2021/03/31 03:32:54;;;;;;;21.30;15.13;;;;;;;5.49;62.89;100572.60;1703983;83;21217;-63
2021/03/31 03:35:25;;;;;;;24.23;14.50;;;;;;;5.45;63.09;100568.67;1695664;83;21595;-63
2021/03/31 03:37:55;;;;;;;22.70;13.40;;;;;;;5.51;62.45;100565.09;1719024;82;21157;-64
2021/03/31 03:40:25;;;;;;;23.50;13.88;;;;;;;5.55;62.23;100567.67;1727070;82;21178;-63
2021/03/31 03:42:53;;;;;;;23.75;15.23;;;;;;;5.47;62.52;100560.66;1724922;82;21173;-62
2021/03/31 03:45:23;;;;;;;22.48;15.15;;;;;;;5.41;62.68;100562.05;1721969;82;21646;-62
2021/03/31 03:47:54;;;;;;;21.25;14.80;;;;;;;5.35;62.77;100561.59;1735553;81;21181;-62
2021/03/31 03:50:21;;;;;;;22.82;14.80;;;;;;;5.32;62.95;100563.34;1746660;82;21343;-63
2021/03/31 03:52:51;;;;;;;25.80;15.18;;;;;;;5.29;63.04;100560.56;1744295;82;21207;-63
2021/03/31 03:55:23;;;;;;;24.10;14.33;;;;;;;5.27;63.44;100557.27;1727610;82;21611;-63
2021/03/31 03:57:52;;;;;;;23.20;14.05;;;;;;;5.39;63.27;100557.38;1707593;82;21135;-62
2021/03/31 04:00:23;;;;;;;22.45;14.90;;;;;;;5.42;62.90;100552.92;1716274;82;21177;-63
2021/03/31 04:02:54;;;;;;;25.60;14.98;;;;;;;5.36;63.43;100553.25;1747218;82;21146;-63
2021/03/31 04:05:22;;;;;;;27.48;15.70;;;;;;;5.34;63.49;100552.66;1717326;83;21304;-63
2021/03/31 04:07:50;;;;;;;25.23;15.75;;;;;;;5.31;63.47;100551.75;1717607;83;21193;-63
2021/03/31 04:10:18;;;;;;;23.27;15.00;;;;;;;5.29;63.65;100543.53;1718927;82;21581;-62
2021/03/31 04:12:47;;;;;;;24.27;15.08;;;;;;;5.27;63.89;100549.17;1731220;82;22084;-63
2021/03/31 04:15:16;;;;;;;22.45;14.25;;;;;;;5.36;63.75;100547.02;1741222;82;21576;-63
2021/03/31 04:17:43;;;;;;;20.55;13.80;;;;;;;5.42;63.70;100537.52;1726290;82;21334;-63
2021/03/31 04:20:18;;;;;;;22.15;14.87;;;;;;;5.37;63.87;100545.47;1717460;82;21296;-63
2021/03/31 04:22:48;;;;;;;23.20;15.93;;;;;;;5.32;64.03;100536.34;1747149;82;21216;-63
2021/03/31 04:25:18;;;;;;;22.40;14.65;;;;;;;5.30;64.25;100543.33;1747057;82;21154;-63
2021/03/31 04:27:49;;;;;;;21.30;14.87;;;;;;;5.31;64.15;100546.34;1747196;82;21186;-64
2021/03/31 04:30:19;;;;;;;23.47;15.93;;;;;;;5.30;64.23;100551.43;1742925;82;21330;-64
2021/03/31 04:32:50;;;;;;;24.55;15.58;;;;;;;5.38;64.14;100550.34;1746771;82;21672;-63
2021/03/31 04:35:20;;;;;;;23.52;15.18;;;;;;;5.51;64.16;100549.72;1733656;82;21163;-63
2021/03/31 04:37:48;;;;;;;23.12;15.32;;;;;;;5.50;64.19;100552.63;1745079;81;21552;-63
2021/03/31 04:40:19;;;;;;;22.20;15.18;;;;;;;5.45;64.60;100551.95;1745339;82;21500;-63
2021/03/31 04:42:47;;;;;;;26.48;15.80;;;;;;;5.43;64.75;100558.08;1699068;83;21326;-62
2021/03/31 04:45:17;;;;;;;23.15;15.30;;;;;;;5.39;64.85;100548.76;1694744;83;21166;-62
2021/03/31 04:47:44;;;;;;;25.95;16.82;;;;;;;5.37;64.89;100552.73;1705341;83;21846;-62
2021/03/31 04:50:13;;;;;;;22.30;15.28;;;;;;;5.35;65.10;100551.59;1704528;83;21326;-62
2021/03/31 04:52:41;;;;;;;23.20;15.30;;;;;;;5.46;64.79;100552.23;1710206;83;21613;-60
2021/03/31 04:55:12;;;;;;;24.92;15.58;;;;;;;5.52;64.56;100550.55;1720890;83;21158;-61
2021/03/31 04:57:40;;;;;;;24.82;15.50;;;;;;;5.47;64.62;100552.55;1683548;83;21173;-60
2021/03/31 05:00:10;;;;;;;26.50;16.73;;;;;;;5.45;64.87;100553.83;1714594;83;21724;-61
2021/03/31 05:02:37;;;;;;;23.32;16.20;;;;;;;5.43;65.50;100559.44;1688052;83;21162;-60
2021/03/31 05:05:06;;;;;;;23.20;15.88;;;;;;;5.42;65.78;100551.02;1720844;83;21190;-60
2021/03/31 05:07:34;;;;;;;26.30;16.73;;;;;;;5.47;66.16;100552.55;1694745;83;21718;-61
2021/03/31 05:10:01;;;;;;;24.43;15.95;;;;;;;5.52;66.23;100555.95;1721734;83;21165;-61
2021/03/31 05:12:28;;;;;;;24.77;16.37;;;;;;;5.44;66.68;100552.99;1718528;83;21218;-61
2021/03/31 05:14:56;;;;;;;23.60;17.35;;;;;;;5.40;67.32;100542.84;1720761;83;21146;-62
2021/03/31 05:17:25;;;;;;;26.25;17.15;;;;;;;5.32;67.54;100541.23;1708865;83;21251;-61
2021/03/31 05:19:52;;;;;;;22.42;15.98;;;;;;;5.37;67.51;100545.47;1696795;83;21294;-61
2021/03/31 05:22:22;;;;;;;24.57;16.23;;;;;;;5.42;67.40;100546.17;1706074;83;21450;-61
2021/03/31 05:24:49;;;;;;;25.88;17.60;;;;;;;5.40;67.52;100547.72;1721522;83;21201;-61
2021/03/31 05:27:17;;;;;;;26.93;18.12;;;;;;;5.38;67.94;100547.12;1719371;83;21905;-61
2021/03/31 05:29:45;;;;;;;29.40;17.65;;;;;;;5.39;67.70;100556.03;1721487;83;21743;-61
2021/03/31 05:32:13;;;;;;;27.50;16.17;;;;;;;5.44;67.65;100555.70;1692585;84;21197;-61
2021/03/31 05:34:41;;;;;;;30.45;16.62;;;;;;;5.60;67.21;100552.16;1692664;85;21649;-61
2021/03/31 05:37:12;;;;;;;28.10;17.77;;;;;;;5.65;66.78;100555.02;1712315;83;21676;-61
2021/03/31 05:39:39;;;;;;;30.75;19.55;;;;;;;5.59;66.69;100545.10;1721569;83;21749;-62
2021/03/31 05:42:10;;;;;;;31.80;20.30;;;;;;;5.53;67.27;100539.23;1721330;81;21217;-61
2021/03/31 05:44:38;;;;;;;31.25;19.82;;;;;;;5.47;67.78;100530.95;1721799;83;21147;-61
2021/03/31 05:47:07;;;;;;;30.00;18.87;;;;;;;5.51;67.29;100526.77;1719298;83;21648;-61
2021/03/31 05:49:35;;;;;;;27.75;17.92;;;;;;;5.60;67.26;100529.20;1721218;83;21288;-62
2021/03/31 05:52:06;;;;;;;26.37;17.82;;;;;;;5.60;66.74;100533.25;1721430;83;21169;-61
2021/03/31 05:54:35;;;;;;;24.72;18.32;;;;;;;5.60;66.71;100537.31;1721484;83;21119;-61
2021/03/31 05:57:05;;;;;;;25.68;17.82;;;;;;;5.60;67.26;100521.91;1693176;83;21599;-61
2021/03/31 05:59:32;;;;;;;24.00;16.65;;;;;;;5.69;66.63;100527.34;1692716;83;21200;-61
2021/03/31 06:04:37;;;;;;;28.35;18.48;;;;;;;5.88;65.98;100514.75;1779270;79;22999;-61
2021/03/31 06:07:06;;;;;;;31.65;18.30;;;;;;;5.80;66.82;100525.80;1728514;82;21189;-61
2021/03/31 06:09:33;;;;;;;26.90;17.82;;;;;;;5.83;66.71;100517.25;1711935;83;21148;-62
2021/03/31 06:12:03;;;;;;;25.70;18.07;;;;;;;5.84;66.37;100520.27;1694847;83;21196;-61
2021/03/31 06:14:35;;;;;;;26.30;17.30;;;;;;;5.84;66.48;100514.34;1716311;83;21937;-61
2021/03/31 06:17:13;;;;;;;25.57;18.07;;;;;;;5.96;66.68;100513.92;1702004;83;21568;-63
2021/03/31 06:19:43;;;;;;;26.25;17.40;;;;;;;6.07;66.10;100511.53;1703637;83;21509;-63
2021/03/31 06:25:20;;;;;;;27.87;18.25;;;;;;;6.06;66.34;100512.61;1711497;83;21106;-62
2021/03/31 06:27:45;;;;;;;26.25;18.12;;;;;;;6.05;66.49;100502.31;1713601;83;21189;-63
2021/03/31 06:30:25;;;;;;;29.23;18.20;;;;;;;6.09;66.56;100499.47;1664546;85;21275;-63
2021/03/31 06:32:53;;;;;;;24.52;17.82;;;;;;;6.27;66.42;100495.95;1693751;85;21368;-63
2021/03/31 06:35:25;;;;;;;26.87;17.80;;;;;;;6.33;66.20;100499.09;1711834;83;21177;-62
2021/03/31 06:40:47;;;;;;;27.42;18.75;;;;;;;6.43;65.77;100502.09;1779707;79;23512;-61
2021/03/31 06:43:37;;;;;;;29.87;19.00;;;;;;;6.40;65.68;100497.97;1737256;82;21596;-58
2021/03/31 06:48:43;;;;;;;24.07;17.77;;;;;;;6.70;65.09;100491.75;1794855;79;23014;-58
2021/03/31 06:51:30;;;;;;;28.27;19.07;;;;;;;6.71;64.89;100497.47;1729188;81;21133;-59
2021/03/31 06:54:20;;;;;;;29.80;19.12;;;;;;;6.70;64.82;100489.88;1762789;80;21154;-57
2021/03/31 06:56:56;;;;;;;37.28;25.77;;;;;;;6.72;65.03;100493.72;1758665;80;21137;-60
2021/03/31 06:59:33;;;;;;;38.08;23.32;;;;;;;6.77;64.93;100492.49;1758289;81;21560;-61
2021/03/31 07:02:03;;;;;;;30.20;19.15;;;;;;;6.84;65.16;100492.70;1757859;80;21160;-59
2021/03/31 07:04:32;;;;;;;27.67;18.92;;;;;;;7.06;64.83;100486.27;1710405;81;21157;-59
2021/03/31 07:07:07;;;;;;;30.43;20.12;;;;;;;7.30;64.03;100487.14;1767786;80;21145;-60
2021/03/31 07:09:39;;;;;;;26.50;18.23;;;;;;;7.40;63.84;100490.12;1763228;80;21578;-61
2021/03/31 07:12:19;;;;;;;28.27;18.55;;;;;;;7.46;63.43;100490.02;1757430;81;21141;-60
2021/03/31 07:14:48;;;;;;;29.48;20.37;;;;;;;7.50;62.96;100489.86;1727219;81;21169;-61
2021/03/31 07:17:25;;;;;;;29.07;20.57;;;;;;;7.59;63.16;100487.61;1757275;81;21174;-61
2021/03/31 07:19:53;;;;;;;30.90;20.55;;;;;;;7.69;62.99;100483.78;1758219;80;21145;-61
2021/03/31 07:22:20;;;;;;;28.15;20.10;;;;;;;7.76;62.85;100483.14;1760121;80;21557;-62
2021/03/31 07:24:49;;;;;;;28.85;20.02;;;;;;;7.83;63.19;100481.70;1760693;80;21218;-61
2021/03/31 07:27:17;;;;;;;25.85;19.05;;;;;;;8.03;62.87;100477.25;1702429;83;21535;-61
2021/03/31 07:32:44;;;;;;;26.45;18.40;;;;;;;8.30;62.12;100471.64;1699876;84;21562;-62
2021/03/31 07:35:12;;;;;;;26.85;18.25;;;;;;;8.39;61.95;100472.94;1716902;83;21168;-60
2021/03/31 07:37:40;;;;;;;24.50;18.07;;;;;;;8.46;61.46;100468.20;1705919;84;21652;-60
2021/03/31 07:40:10;;;;;;;24.63;17.95;;;;;;;8.52;61.28;100473.18;1705974;84;21224;-60
2021/03/31 07:42:45;;;;;;;29.63;19.80;;;;;;;8.59;61.17;100471.98;1676049;84;21188;-60
2021/03/31 07:45:16;;;;;;;24.43;17.52;;;;;;;8.65;60.90;100474.25;1707578;83;21647;-61
2021/03/31 07:47:44;;;;;;;25.10;17.73;;;;;;;8.71;60.87;100471.42;1696804;83;21338;-60
2021/03/31 07:50:13;;;;;;;32.90;20.85;;;;;;;8.78;60.75;100474.82;1660514;85;21611;-60
2021/03/31 07:52:55;;;;;;;33.40;21.27;;;;;;;8.84;60.56;100467.58;1687467;85;21189;-61
2021/03/31 07:55:45;;;;;;;33.65;21.45;;;;;;;8.92;59.73;100468.56;1750372;82;21123;-61
2021/03/31 07:58:17;;;;;;;34.35;21.87;;;;;;;8.93;59.50;100466.94;1751804;82;21211;-61
2021/03/31 08:00:52;;;;;;;41.53;27.30;;;;;;;8.96;59.57;100475.16;1751526;82;21146;-60
2021/03/31 08:03:22;;;;;;;37.48;22.20;;;;;;;8.99;59.38;100470.59;1751244;82;21170;-61
2021/03/31 08:06:17;;;;;;;28.12;19.30;;;;;;;9.15;59.32;100471.67;1749072;81;21166;-60
2021/03/31 08:08:51;;;;;;;31.42;19.48;;;;;;;9.27;58.57;100465.66;1723887;82;21813;-61
2021/03/31 08:11:47;;;;;;;30.72;19.77;;;;;;;9.31;58.56;100460.02;1721554;83;21177;-60
2021/03/31 08:14:31;;;;;;;27.60;21.05;;;;;;;9.32;58.27;100452.97;1746673;82;21192;-61
2021/03/31 08:17:01;;;;;;;32.13;22.62;;;;;;;9.39;58.54;100459.59;1751587;81;21739;-61
2021/03/31 08:19:39;;;;;;;31.40;21.65;;;;;;;9.49;58.92;100455.70;1751396;82;21207;-60
2021/03/31 08:22:36;;;;;;;29.80;21.35;;;;;;;9.58;58.09;100454.74;1749157;81;21173;-61
2021/03/31 08:25:25;;;;;;;27.00;20.60;;;;;;;9.67;58.14;100454.63;1721638;83;21145;-61
2021/03/31 08:28:01;;;;;;;29.10;21.17;;;;;;;9.74;57.92;100452.56;1726010;82;21149;-61
2021/03/31 08:30:29;;;;;;;28.65;21.00;;;;;;;9.80;57.37;100452.92;1754499;81;21581;-61
2021/03/31 08:32:57;;;;;;;29.55;19.75;;;;;;;9.85;57.56;100448.89;1751798;82;21192;-62
2021/03/31 08:35:27;;;;;;;31.15;20.30;;;;;;;9.89;57.40;100441.89;1751471;82;21296;-62
2021/03/31 08:37:54;;;;;;;28.27;20.27;;;;;;;9.92;57.32;100441.39;1751375;82;21158;-61
2021/03/31 08:40:22;;;;;;;27.82;19.98;;;;;;;9.95;57.47;100443.63;1751347;82;21169;-61
2021/03/31 08:42:54;;;;;;;29.82;20.80;;;;;;;10.04;57.54;100442.11;1720571;83;21174;-61
2021/03/31 08:45:25;;;;;;;28.65;21.25;;;;;;;10.12;57.19;100439.50;1722316;82;21138;-61
2021/03/31 08:47:53;;;;;;;31.42;20.10;;;;;;;10.14;56.98;100435.48;1733642;82;21165;-61
2021/03/31 08:50:25;;;;;;;31.48;21.80;;;;;;;10.17;56.92;100434.97;1748777;82;21213;-61
2021/03/31 08:53:05;;;;;;;30.00;22.00;;;;;;;10.19;57.31;100436.92;1778152;80;21215;-62
2021/03/31 08:55:36;;;;;;;28.20;22.13;;;;;;;10.25;57.21;100436.44;1713058;84;21182;-62
2021/03/31 08:58:07;;;;;;;31.90;21.12;;;;;;;10.30;57.14;100428.34;1779429;80;21138;-61
2021/03/31 09:00:51;;;;;;;31.02;22.70;;;;;;;10.39;57.32;100426.28;1779400;80;21149;-61
2021/03/31 09:03:19;;;;;;;29.05;21.33;;;;;;;10.44;56.71;100425.53;1687976;84;21792;-61
2021/03/31 09:05:58;;;;;;;31.62;21.55;;;;;;;10.52;56.77;100428.34;1748675;82;21138;-61
2021/03/31 09:08:27;;;;;;;33.60;22.62;;;;;;;10.55;56.92;100423.75;1748702;82;21199;-60
2021/03/31 09:11:03;;;;;;;31.95;23.10;;;;;;;10.60;57.29;100423.79;1748644;82;21154;-61
2021/03/31 09:13:34;;;;;;;31.75;22.48;;;;;;;10.63;57.04;100420.58;1748915;81;21169;-61
2021/03/31 09:16:09;;;;;;;32.05;22.98;;;;;;;10.68;56.80;100421.98;1748863;81;21574;-61
2021/03/31 09:18:42;;;;;;;31.12;22.00;;;;;;;10.72;57.34;100419.86;1730263;82;21208;-62
2021/03/31 09:21:12;;;;;;;29.50;22.13;;;;;;;10.82;57.40;100424.05;1748552;81;21700;-62
2021/03/31 09:23:45;;;;;;;26.77;19.95;;;;;;;10.91;57.33;100412.16;1748628;82;21146;-62
2021/03/31 09:26:13;;;;;;;30.00;22.20;;;;;;;10.99;57.49;100417.13;1748683;82;21277;-61
2021/03/31 09:28:41;;;;;;;32.88;22.52;;;;;;;11.06;57.32;100410.92;1748568;82;21178;-61
2021/03/31 09:31:12;;;;;;;26.50;17.62;;;;;;;11.12;57.34;100411.27;1748756;81;21601;-63
2021/03/31 09:33:44;;;;;;;26.68;20.02;;;;;;;11.17;57.64;100409.11;1748805;82;21578;-62
2021/03/31 09:36:18;;;;;;;29.40;20.17;;;;;;;11.22;57.68;100410.00;1720380;82;21320;-63
2021/03/31 09:38:56;;;;;;;29.40;20.60;;;;;;;11.25;57.54;100406.75;1720689;82;21560;-62
2021/03/31 09:41:27;;;;;;;29.05;20.45;;;;;;;11.32;58.64;100408.71;1739613;82;21157;-62
2021/03/31 09:43:57;;;;;;;33.42;20.27;;;;;;;11.53;59.32;100404.23;1748777;82;21137;-62
2021/03/31 09:46:26;;;;;;;30.05;19.25;;;;;;;11.64;59.64;100401.86;1713072;84;21138;-63
2021/03/31 09:48:54;;;;;;;29.67;20.75;;;;;;;11.70;59.77;100399.97;1707736;83;21197;-63
2021/03/31 09:51:22;;;;;;;29.60;19.35;;;;;;;11.72;59.80;100395.12;1680088;85;21191;-63
2021/03/31 09:53:52;;;;;;;30.60;20.17;;;;;;;11.77;59.99;100398.70;1740723;82;21168;-63
2021/03/31 09:56:20;;;;;;;30.80;21.50;;;;;;;11.81;60.02;100400.35;1740645;82;21495;-63
2021/03/31 09:58:48;;;;;;;32.67;22.50;;;;;;;11.79;60.57;100401.17;1740766;82;21184;-63
2021/03/31 10:01:17;;;;;;;25.32;19.00;;;;;;;11.75;61.21;100393.23;1742993;81;21332;-63
2021/03/31 10:03:46;;;;;;;38.20;25.12;;;;;;;11.77;61.47;100392.41;1742975;82;21305;-62
2021/03/31 10:06:21;;;;;;;31.75;20.72;;;;;;;11.90;61.22;100397.42;1732958;82;21170;-63
2021/03/31 10:08:50;;;;;;;43.65;30.50;;;;;;;11.85;61.17;100396.84;1741425;82;21189;-62
2021/03/31 10:11:35;;;;;;;48.40;31.52;;;;;;;11.75;61.68;100392.70;1720622;82;21177;-62
2021/03/31 10:14:19;;;;;;;56.65;38.10;;;;;;;11.70;62.59;100395.88;1740699;82;21315;-63
2021/03/31 10:16:48;;;;;;;36.60;22.82;;;;;;;11.67;62.66;100397.23;1739945;82;21146;-62
2021/03/31 10:19:17;;;;;;;38.17;24.37;;;;;;;11.66;62.91;100388.77;1740894;82;21621;-62
2021/03/31 10:21:46;;;;;;;35.68;22.30;;;;;;;11.70;63.25;100391.80;1729105;82;21126;-62
2021/03/31 10:24:14;;;;;;;37.80;22.45;;;;;;;11.82;63.32;100396.02;1697017;82;21215;-62
2021/03/31 10:26:48;;;;;;;32.53;21.40;;;;;;;11.91;63.29;100390.86;1670247;82;21146;-62
2021/03/31 10:29:23;;;;;;;36.88;23.20;;;;;;;11.94;63.31;100387.59;1741114;82;21219;-62
2021/03/31 10:31:54;;;;;;;30.95;21.68;;;;;;;12.00;63.41;100389.83;1741234;82;21280;-62
2021/03/31 10:34:22;;;;;;;31.68;18.57;;;;;;;12.08;62.93;100381.94;1740697;82;21170;-62
2021/03/31 10:48:33;;;;;;;32.58;22.17;;;;;;;12.69;60.30;100371.22;1743913;82;21690;-62
2021/03/31 10:51:04;;;;;;;30.70;23.52;;;;;;;12.84;60.17;100366.62;1748553;82;21803;-63
2021/03/31 10:56:21;;;;;;;33.63;21.80;;;;;;;13.42;58.73;100364.48;1779904;79;23334;-60
2021/03/31 10:58:49;;;;;;;35.63;25.48;;;;;;;13.55;57.73;100352.96;1731272;82;21330;-61
2021/03/31 11:01:16;;;;;;;30.80;21.55;;;;;;;13.69;57.73;100353.20;1722794;82;21154;-61
2021/03/31 11:03:44;;;;;;;26.40;18.80;;;;;;;13.80;56.93;100349.34;1722498;83;21157;-61
2021/03/31 11:06:11;;;;;;;30.50;21.68;;;;;;;13.88;55.94;100354.26;1722750;83;21180;-61
2021/03/31 11:08:39;;;;;;;31.73;20.97;;;;;;;13.90;56.45;100350.14;1722616;83;21181;-61
2021/03/31 11:11:09;;;;;;;30.20;21.82;;;;;;;13.92;55.84;100339.72;1722587;83;21161;-61
2021/03/31 11:13:38;;;;;;;27.48;19.57;;;;;;;13.98;56.24;100342.45;1720431;82;21176;-61
2021/03/31 11:16:08;;;;;;;29.75;20.43;;;;;;;14.07;56.73;100336.65;1705720;83;21288;-63
2021/03/31 11:21:29;;;;;;;25.57;18.80;;;;;;;14.16;55.64;100327.59;1700248;83;21153;-61
2021/03/31 11:26:24;;;;;;;26.60;18.42;;;;;;;14.22;55.51;100325.64;1722660;83;21214;-60
2021/03/31 11:28:51;;;;;;;25.65;19.05;;;;;;;14.29;55.86;100322.05;1722993;83;21649;-62
2021/03/31 11:31:19;;;;;;;28.92;18.42;;;;;;;14.31;55.27;100315.75;1720430;83;21323;-62
2021/03/31 11:33:47;;;;;;;26.27;18.32;;;;;;;14.27;55.70;100318.78;1722615;83;21177;-61
2021/03/31 11:36:16;;;;;;;28.27;18.57;;;;;;;14.24;55.88;100315.23;1722312;83;21205;-61
2021/03/31 11:38:44;;;;;;;23.73;17.73;;;;;;;14.21;55.86;100319.88;1716919;82;21457;-58
2021/03/31 11:41:12;;;;;;;25.40;19.48;;;;;;;14.23;55.92;100315.78;1699747;83;21167;-62
2021/03/31 11:43:39;;;;;;;25.40;19.07;;;;;;;14.23;55.89;100313.05;1706329;83;21194;-60
2021/03/31 11:46:07;;;;;;;24.40;18.35;;;;;;;14.18;55.89;100304.84;1702220;83;21220;-61
2021/03/31 11:48:34;;;;;;;29.92;20.02;;;;;;;14.16;56.48;100306.23;1701282;83;21169;-61
2021/03/31 11:51:03;;;;;;;27.73;19.42;;;;;;;14.14;56.11;100302.94;1717424;83;21612;-61
2021/03/31 11:53:30;;;;;;;30.12;19.73;;;;;;;14.10;56.00;100299.95;1722207;83;21153;-62
2021/03/31 11:56:00;;;;;;;27.37;19.00;;;;;;;14.02;56.11;100304.66;1708635;83;21146;-63
2021/03/31 11:58:27;;;;;;;25.60;19.02;;;;;;;14.02;56.34;100299.19;1707929;84;21138;-63
2021/03/31 12:00:56;;;;;;;40.00;25.32;;;;;;;13.97;56.74;100299.20;1694315;84;21732;-61
2021/03/31 12:03:24;;;;;;;46.85;27.65;;;;;;;13.95;57.12;100298.67;1687865;84;21189;-60
2021/03/31 12:05:52;;;;;;;42.10;23.73;;;;;;;13.92;57.45;100296.50;1706865;84;21230;-59